Pasio Per Formentera — ECAC — position and weather

sailwx.info

Track history (hours):
 
Tides and Currents Weather Stations Pressure Air Temp Water Temp Dewpoint Dewpoint Depression Visibility Wind Speed Wind Dir Waves Ship Positions

Pasio Per Formentera

Last reported at 2018-Jan-18 02:00 UTC. Time now 2018-Jan-18 02:23 UTC.
Position N 35°54' W 005°19'.

Length 101 m; draft 4.2 m.

Type: Ship. MMSI: 224593000.

Date/timePositionNaut miles runAvg speedWind from/ knotsBaromVisibWave heightAir tempDewpointWater temp
2018-Jan-18 02:00N 35°54' W 005°19'0 0.0
2018-Jan-18 01:30N 35°54' W 005°19'0 0.0
2018-Jan-18 01:00N 35°54' W 005°19'0 0.0
2018-Jan-18 00:00N 35°54' W 005°19'0 0.1
2018-Jan-17 23:57N 35°54' W 005°19'  
2018-Jan-12 15:00N 35°54' W 005°19'0 0.0
2018-Jan-12 14:30N 35°54' W 005°19'2 4.2
2018-Jan-12 14:00N 35°56' W 005°20'917.4
2018-Jan-12 13:30N 36°04' W 005°23'5 9.4
2018-Jan-12 13:01N 36°08' W 005°26'0 0.0
2018-Jan-12 12:30N 36°08' W 005°26'0 0.0
2018-Jan-12 12:01N 36°08' W 005°26'3 5.7
2018-Jan-12 11:30N 36°06' W 005°23'918.3
2018-Jan-12 11:00N 35°58' W 005°20'4 8.2
2018-Jan-12 10:30N 35°54' W 005°19'0 0.0
2018-Jan-12 10:00N 35°54' W 005°19'0 0.0
2018-Jan-12 09:30N 35°54' W 005°19'0 0.0
2018-Jan-12 09:00N 35°54' W 005°19'0 0.0
2018-Jan-12 08:30N 35°54' W 005°19'2 4.7
2018-Jan-12 08:01N 35°56' W 005°19'1019.3
2018-Jan-12 07:30N 36°05' W 005°23'4 7.7
2018-Jan-12 07:00N 36°08' W 005°26'0 0.0
2018-Jan-12 06:29N 36°08' W 005°26'2 3.3
2018-Jan-12 06:00N 36°08' W 005°24'918.2
2018-Jan-12 05:30N 35°60' W 005°21'611.7
2018-Jan-12 05:00N 35°54' W 005°19'0 0.0
2018-Jan-12 04:30N 35°54' W 005°19'0 0.0
2018-Jan-12 04:00N 35°54' W 005°19'0 0.0
2018-Jan-12 03:30N 35°54' W 005°19'0 0.0
2018-Jan-12 03:00N 35°54' W 005°19'0 0.0
2018-Jan-12 02:30N 35°54' W 005°19'0 0.0
2018-Jan-12 02:00N 35°54' W 005°19'0 0.0
2018-Jan-12 01:31N 35°54' W 005°19'0 0.0
2018-Jan-12 01:00N 35°54' W 005°19'0 0.0
2018-Jan-12 00:30N 35°54' W 005°19'0 0.0
2018-Jan-12 00:01N 35°54' W 005°19'1 1.4
2018-Jan-11 23:30N 35°54' W 005°19'1019.3
2018-Jan-11 23:01N 36°03' W 005°22'611.4
2018-Jan-11 22:30N 36°08' W 005°26'0 0.1
2018-Jan-11 22:00N 36°08' W 005°26'0 0.0
2018-Jan-11 21:29N 36°08' W 005°26'0 0.0
2018-Jan-11 21:00N 36°08' W 005°26'0 0.0
2018-Jan-11 20:29N 36°08' W 005°26'2 3.7
2018-Jan-11 20:00N 36°08' W 005°24'918.2
2018-Jan-11 19:30N 35°59' W 005°21'611.4
2018-Jan-11 19:00N 35°54' W 005°19'0 0.0
2018-Jan-11 18:30N 35°54' W 005°19'1 2.9
2018-Jan-11 18:00N 35°55' W 005°18'1019.8
2018-Jan-11 17:30N 36°04' W 005°23'5 8.1
2018-Jan-11 16:57N 36°08' W 005°26'0 0.0
2018-Jan-11 16:30N 36°08' W 005°26'2 4.4
2018-Jan-11 16:00N 36°07' W 005°24'816.4
2018-Jan-11 15:30N 35°60' W 005°20'611.9
2018-Jan-11 15:00N 35°54' W 005°19'0 0.0
2018-Jan-11 14:30N 35°54' W 005°19'2 4.3
2018-Jan-11 14:00N 35°56' W 005°19'1019.2
2018-Jan-11 13:30N 36°05' W 005°23'4 8.3
2018-Jan-11 13:01N 36°08' W 005°26'0 0.0
2018-Jan-11 12:31N 36°08' W 005°26'0 0.0
2018-Jan-11 12:01N 36°08' W 005°26'2 3.6
2018-Jan-11 11:30N 36°08' W 005°24'917.8
2018-Jan-11 11:01N 36°00' W 005°19'613.0
2018-Jan-11 10:30N 35°54' W 005°19'0 0.0
2018-Jan-11 10:00N 35°54' W 005°19'0 0.0
2018-Jan-11 09:30N 35°54' W 005°19'0 0.0
2018-Jan-11 09:00N 35°54' W 005°19'0 0.0
2018-Jan-11 08:30N 35°54' W 005°19'1 2.3
2018-Jan-11 08:00N 35°55' W 005°18'1019.2
2018-Jan-11 07:30N 36°04' W 005°23'510.2
2018-Jan-11 07:00N 36°08' W 005°26'0 0.0
2018-Jan-11 06:30N 36°08' W 005°26'1 2.6
2018-Jan-11 06:00N 36°09' W 005°25'917.8
2018-Jan-11 05:31N 36°01' W 005°21'714.0
2018-Jan-11 05:01N 35°54' W 005°19'0 0.1
2018-Jan-11 04:30N 35°54' W 005°19'0 0.0
2018-Jan-11 04:00N 35°54' W 005°19'0 0.0
2018-Jan-11 03:31N 35°54' W 005°19'0 0.0
2018-Jan-11 03:01N 35°54' W 005°19'0 0.0
2018-Jan-11 02:30N 35°54' W 005°19'0 0.0
2018-Jan-11 02:00N 35°54' W 005°19'0 0.0
2018-Jan-11 01:30N 35°54' W 005°19'0 0.0
2018-Jan-11 01:00N 35°54' W 005°19'0 0.0
2018-Jan-11 00:31N 35°54' W 005°19'0 0.0
2018-Jan-11 00:00N 35°54' W 005°19'2 3.6
2018-Jan-10 23:30N 35°55' W 005°18'1019.1
2018-Jan-10 23:00N 36°04' W 005°22'5 9.9
2018-Jan-10 22:30N 36°08' W 005°26'0 0.0
2018-Jan-10 22:00N 36°08' W 005°26'0 0.0
2018-Jan-10 21:30N 36°08' W 005°26'0 0.0
2018-Jan-10 21:00N 36°08' W 005°26'0 0.0
2018-Jan-10 20:28N 36°08' W 005°26'2 4.3
2018-Jan-10 20:00N 36°08' W 005°24'917.6
2018-Jan-10 19:30N 35°60' W 005°21'612.8
2018-Jan-10 19:01N 35°54' W 005°19'0 0.0
2018-Jan-10 18:31N 35°54' W 005°19'2 3.6
2018-Jan-10 18:00N 35°55' W 005°18'1019.6
2018-Jan-10 17:30N 36°04' W 005°22'5 9.2
2018-Jan-10 16:59N 36°08' W 005°26'0 0.0
2018-Jan-10 16:30N 36°08' W 005°26'1 2.6
2018-Jan-10 16:00N 36°09' W 005°25'917.8
2018-Jan-10 15:30N 36°01' W 005°21'713.8
2018-Jan-10 15:00N 35°54' W 005°19'0 0.0
2018-Jan-10 14:30N 35°54' W 005°19'3 5.5
2018-Jan-10 14:00N 35°56' W 005°18'918.6
2018-Jan-10 13:30N 36°05' W 005°23'4 7.9
2018-Jan-10 13:00N 36°08' W 005°26'0 0.0
2018-Jan-10 12:30N 36°08' W 005°26'0 0.0
2018-Jan-10 12:01N 36°08' W 005°26'2 4.4
2018-Jan-10 11:30N 36°07' W 005°24'918.1
2018-Jan-10 11:00N 35°59' W 005°21'510.0
2018-Jan-10 10:30N 35°54' W 005°19'0 0.0
2018-Jan-10 10:00N 35°54' W 005°19'0 0.0
2018-Jan-10 09:30N 35°54' W 005°19'0 0.0
2018-Jan-10 09:00N 35°54' W 005°19'0 0.0
2018-Jan-10 08:30N 35°54' W 005°19'1 1.8
2018-Jan-10 08:01N 35°54' W 005°18'1019.3
2018-Jan-10 07:31N 36°04' W 005°22'611.2
2018-Jan-10 07:00N 36°08' W 005°26'0 0.0
2018-Jan-10 06:30N 36°08' W 005°26'3 6.8
2018-Jan-10 06:00N 36°06' W 005°23'917.7
2018-Jan-10 05:30N 35°57' W 005°20'4 7.2
2018-Jan-10 05:00N 35°54' W 005°19'0 0.0
2018-Jan-10 04:30N 35°54' W 005°19'0 0.0
2018-Jan-10 04:00N 35°54' W 005°19'0 0.0
2018-Jan-10 03:30N 35°54' W 005°19'0 0.0
2018-Jan-10 03:00N 35°54' W 005°19'0 0.0
2018-Jan-10 02:30N 35°54' W 005°19'0 0.0
2018-Jan-10 02:00N 35°54' W 005°19'0 0.0
2018-Jan-10 01:30N 35°54' W 005°19'0 0.0
2018-Jan-10 01:00N 35°54' W 005°19'0 0.0
2018-Jan-10 00:30N 35°54' W 005°19'0 0.0
2018-Jan-10 00:00N 35°54' W 005°19'3 5.5
2018-Jan-09 23:31N 35°56' W 005°20'918.4
2018-Jan-09 23:00N 36°05' W 005°23'4 7.6
2018-Jan-09 22:30N 36°08' W 005°26'0 0.0
2018-Jan-09 22:01N 36°08' W 005°26'0 0.0
2018-Jan-09 21:30N 36°08' W 005°26'0 0.0
2018-Jan-09 21:01N 36°08' W 005°26'0 0.0
2018-Jan-09 20:30N 36°08' W 005°26'2 3.4
2018-Jan-09 20:00N 36°08' W 005°24'918.3
2018-Jan-09 19:30N 35°60' W 005°21'612.3
2018-Jan-09 19:00N 35°54' W 005°19'0 0.0
2018-Jan-09 18:30N 35°54' W 005°19'2 4.2
2018-Jan-09 18:00N 35°56' W 005°18'1019.1
2018-Jan-09 17:30N 36°05' W 005°22'5 9.2
2018-Jan-09 17:00N 36°08' W 005°26'0 0.0
2018-Jan-09 16:30N 36°08' W 005°26'2 4.1
2018-Jan-09 16:00N 36°08' W 005°24'918.5
2018-Jan-09 15:31N 35°59' W 005°20'510.7
2018-Jan-09 15:00N 35°54' W 005°19'0 0.0
2018-Jan-09 14:30N 35°54' W 005°19'1 2.4
2018-Jan-09 14:00N 35°55' W 005°18'918.8
2018-Jan-09 13:30N 36°04' W 005°22'611.0
2018-Jan-09 13:00N 36°08' W 005°26'0 0.1
2018-Jan-09 12:30N 36°08' W 005°26'0 0.0
2018-Jan-09 12:00N 36°08' W 005°26'2 3.0
2018-Jan-09 11:30N 36°09' W 005°25'918.1
2018-Jan-09 11:00N 36°00' W 005°21'713.5
2018-Jan-09 10:30N 35°54' W 005°19'0 0.0
2018-Jan-09 10:00N 35°54' W 005°19'0 0.0
2018-Jan-09 09:30N 35°54' W 005°19'0 0.0
2018-Jan-09 09:00N 35°54' W 005°19'0 0.0
2018-Jan-09 08:30N 35°54' W 005°19'1 1.6
2018-Jan-09 08:00N 35°54' W 005°18'1019.0
2018-Jan-09 07:30N 36°03' W 005°22'611.4
2018-Jan-09 07:00N 36°08' W 005°26'0 0.3
2018-Jan-09 06:30N 36°08' W 005°26'1 3.0
2018-Jan-09 06:01N 36°09' W 005°25'918.6
2018-Jan-09 05:30N 36°00' W 005°20'713.1
2018-Jan-09 05:00N 35°54' W 005°19'0 0.0
2018-Jan-09 04:30N 35°54' W 005°19'0 0.0
2018-Jan-09 04:00N 35°54' W 005°19'0 0.0
2018-Jan-09 03:30N 35°54' W 005°19'0 0.0
2018-Jan-09 03:00N 35°54' W 005°19'0 0.0
2018-Jan-09 02:30N 35°54' W 005°19'0 0.0
2018-Jan-09 02:00N 35°54' W 005°19'0 0.0
2018-Jan-09 01:30N 35°54' W 005°19'0 0.0
2018-Jan-09 01:00N 35°54' W 005°19'0 0.0
2018-Jan-09 00:30N 35°54' W 005°19'0 0.0
2018-Jan-09 00:00N 35°54' W 005°19'1 1.2
2018-Jan-08 23:30N 35°54' W 005°19'918.3
2018-Jan-08 23:01N 36°03' W 005°22'612.4
2018-Jan-08 22:29N 36°08' W 005°26'8 2.7
2018-Jan-08 19:38N 36°01' W 005°21'217.7
2018-Jan-08 19:30N 35°59' W 005°20'611.2
2018-Jan-08 19:00N 35°54' W 005°19'0 0.0
2018-Jan-08 18:30N 35°54' W 005°19'2 4.0
2018-Jan-08 18:00N 35°56' W 005°18'5 2.3
2018-Jan-08 15:39N 36°00' W 005°21'317.7
2018-Jan-08 15:30N 35°58' W 005°20'4 8.8
2018-Jan-08 15:00N 35°54' W 005°19'0 0.0
2018-Jan-08 14:31N 35°54' W 005°19'1 2.0
2018-Jan-08 14:00N 35°55' W 005°19'918.9
2018-Jan-08 13:30N 36°04' W 005°22'2 0.7
2018-Jan-08 11:08N 36°02' W 005°22'218.9
2018-Jan-08 11:00N 35°60' W 005°21'612.6
2018-Jan-08 10:30N 35°54' W 005°19'0 0.0
2018-Jan-08 10:00N 35°54' W 005°19'0 0.0
2018-Jan-08 09:30N 35°54' W 005°19'0 0.0
2018-Jan-08 09:00N 35°54' W 005°19'0 0.0
2018-Jan-08 08:30N 35°54' W 005°19'3 6.1
2018-Jan-08 08:00N 35°57' W 005°20'917.9
2018-Jan-08 07:30N 36°05' W 005°23'4 3.4
2018-Jan-08 06:27N 36°08' W 005°26'4 8.6
2018-Jan-08 06:00N 36°05' W 005°23'918.9
2018-Jan-08 05:31N 35°56' W 005°20'2 4.9
2018-Jan-08 05:01N 35°54' W 005°19'0 0.0
2018-Jan-08 04:31N 35°54' W 005°19'0 0.0
2018-Jan-08 04:01N 35°54' W 005°19'0 0.0
2018-Jan-08 03:31N 35°54' W 005°19'0 0.0
2018-Jan-08 03:01N 35°54' W 005°19'0 0.0
2018-Jan-08 02:30N 35°54' W 005°19'0 0.0
2018-Jan-08 02:01N 35°54' W 005°19'  
Track history (hours):
 
Tides and Currents Weather Stations Pressure Air Temp Water Temp Dewpoint Dewpoint Depression Visibility Wind Speed Wind Dir Waves Ship Positions

Pasio Per Formentera

Last reported at 2018-Jan-18 02:00 UTC. Time now 2018-Jan-18 02:23 UTC.
Position N 35°54' W 005°19'.

Length 101 m; draft 4.2 m.

Type: Ship. MMSI: 224593000.

Date/timePositionNaut miles runAvg speedWind from/ knotsBaromVisibWave heightAir tempDewpointWater temp
2018-Jan-18 02:00N 35°54' W 005°19'0 0.0
2018-Jan-18 01:30N 35°54' W 005°19'0 0.0
2018-Jan-18 01:00N 35°54' W 005°19'0 0.0
2018-Jan-18 00:00N 35°54' W 005°19'0 0.1
2018-Jan-17 23:57N 35°54' W 005°19'  
2018-Jan-12 15:00N 35°54' W 005°19'0 0.0
2018-Jan-12 14:30N 35°54' W 005°19'2 4.2
2018-Jan-12 14:00N 35°56' W 005°20'917.4
2018-Jan-12 13:30N 36°04' W 005°23'5 9.4
2018-Jan-12 13:01N 36°08' W 005°26'0 0.0
2018-Jan-12 12:30N 36°08' W 005°26'0 0.0
2018-Jan-12 12:01N 36°08' W 005°26'3 5.7
2018-Jan-12 11:30N 36°06' W 005°23'918.3
2018-Jan-12 11:00N 35°58' W 005°20'4 8.2
2018-Jan-12 10:30N 35°54' W 005°19'0 0.0
2018-Jan-12 10:00N 35°54' W 005°19'0 0.0
2018-Jan-12 09:30N 35°54' W 005°19'0 0.0
2018-Jan-12 09:00N 35°54' W 005°19'0 0.0
2018-Jan-12 08:30N 35°54' W 005°19'2 4.7
2018-Jan-12 08:01N 35°56' W 005°19'1019.3
2018-Jan-12 07:30N 36°05' W 005°23'4 7.7
2018-Jan-12 07:00N 36°08' W 005°26'0 0.0
2018-Jan-12 06:29N 36°08' W 005°26'2 3.3
2018-Jan-12 06:00N 36°08' W 005°24'918.2
2018-Jan-12 05:30N 35°60' W 005°21'611.7
2018-Jan-12 05:00N 35°54' W 005°19'0 0.0
2018-Jan-12 04:30N 35°54' W 005°19'0 0.0
2018-Jan-12 04:00N 35°54' W 005°19'0 0.0
2018-Jan-12 03:30N 35°54' W 005°19'0 0.0
2018-Jan-12 03:00N 35°54' W 005°19'0 0.0
2018-Jan-12 02:30N 35°54' W 005°19'0 0.0
2018-Jan-12 02:00N 35°54' W 005°19'0 0.0
2018-Jan-12 01:31N 35°54' W 005°19'0 0.0
2018-Jan-12 01:00N 35°54' W 005°19'0 0.0
2018-Jan-12 00:30N 35°54' W 005°19'0 0.0
2018-Jan-12 00:01N 35°54' W 005°19'1 1.4
2018-Jan-11 23:30N 35°54' W 005°19'1019.3
2018-Jan-11 23:01N 36°03' W 005°22'611.4
2018-Jan-11 22:30N 36°08' W 005°26'0 0.1
2018-Jan-11 22:00N 36°08' W 005°26'0 0.0
2018-Jan-11 21:29N 36°08' W 005°26'0 0.0
2018-Jan-11 21:00N 36°08' W 005°26'0 0.0
2018-Jan-11 20:29N 36°08' W 005°26'2 3.7
2018-Jan-11 20:00N 36°08' W 005°24'918.2
2018-Jan-11 19:30N 35°59' W 005°21'611.4
2018-Jan-11 19:00N 35°54' W 005°19'0 0.0
2018-Jan-11 18:30N 35°54' W 005°19'1 2.9
2018-Jan-11 18:00N 35°55' W 005°18'1019.8
2018-Jan-11 17:30N 36°04' W 005°23'5 8.1
2018-Jan-11 16:57N 36°08' W 005°26'0 0.0
2018-Jan-11 16:30N 36°08' W 005°26'2 4.4
2018-Jan-11 16:00N 36°07' W 005°24'816.4
2018-Jan-11 15:30N 35°60' W 005°20'611.9
2018-Jan-11 15:00N 35°54' W 005°19'0 0.0
2018-Jan-11 14:30N 35°54' W 005°19'2 4.3
2018-Jan-11 14:00N 35°56' W 005°19'1019.2
2018-Jan-11 13:30N 36°05' W 005°23'4 8.3
2018-Jan-11 13:01N 36°08' W 005°26'0 0.0
2018-Jan-11 12:31N 36°08' W 005°26'0 0.0
2018-Jan-11 12:01N 36°08' W 005°26'2 3.6
2018-Jan-11 11:30N 36°08' W 005°24'917.8
2018-Jan-11 11:01N 36°00' W 005°19'613.0
2018-Jan-11 10:30N 35°54' W 005°19'0 0.0
2018-Jan-11 10:00N 35°54' W 005°19'0 0.0
2018-Jan-11 09:30N 35°54' W 005°19'0 0.0
2018-Jan-11 09:00N 35°54' W 005°19'0 0.0
2018-Jan-11 08:30N 35°54' W 005°19'1 2.3
2018-Jan-11 08:00N 35°55' W 005°18'1019.2
2018-Jan-11 07:30N 36°04' W 005°23'510.2
2018-Jan-11 07:00N 36°08' W 005°26'0 0.0
2018-Jan-11 06:30N 36°08' W 005°26'1 2.6
2018-Jan-11 06:00N 36°09' W 005°25'917.8
2018-Jan-11 05:31N 36°01' W 005°21'714.0
2018-Jan-11 05:01N 35°54' W 005°19'0 0.1
2018-Jan-11 04:30N 35°54' W 005°19'0 0.0
2018-Jan-11 04:00N 35°54' W 005°19'0 0.0
2018-Jan-11 03:31N 35°54' W 005°19'0 0.0
2018-Jan-11 03:01N 35°54' W 005°19'0 0.0
2018-Jan-11 02:30N 35°54' W 005°19'0 0.0
2018-Jan-11 02:00N 35°54' W 005°19'0 0.0
2018-Jan-11 01:30N 35°54' W 005°19'0 0.0
2018-Jan-11 01:00N 35°54' W 005°19'0 0.0
2018-Jan-11 00:31N 35°54' W 005°19'0 0.0
2018-Jan-11 00:00N 35°54' W 005°19'2 3.6
2018-Jan-10 23:30N 35°55' W 005°18'1019.1
2018-Jan-10 23:00N 36°04' W 005°22'5 9.9
2018-Jan-10 22:30N 36°08' W 005°26'0 0.0
2018-Jan-10 22:00N 36°08' W 005°26'0 0.0
2018-Jan-10 21:30N 36°08' W 005°26'0 0.0
2018-Jan-10 21:00N 36°08' W 005°26'0 0.0
2018-Jan-10 20:28N 36°08' W 005°26'2 4.3
2018-Jan-10 20:00N 36°08' W 005°24'917.6
2018-Jan-10 19:30N 35°60' W 005°21'612.8
2018-Jan-10 19:01N 35°54' W 005°19'0 0.0
2018-Jan-10 18:31N 35°54' W 005°19'2 3.6
2018-Jan-10 18:00N 35°55' W 005°18'1019.6
2018-Jan-10 17:30N 36°04' W 005°22'5 9.2
2018-Jan-10 16:59N 36°08' W 005°26'0 0.0
2018-Jan-10 16:30N 36°08' W 005°26'1 2.6
2018-Jan-10 16:00N 36°09' W 005°25'917.8
2018-Jan-10 15:30N 36°01' W 005°21'713.8
2018-Jan-10 15:00N 35°54' W 005°19'0 0.0
2018-Jan-10 14:30N 35°54' W 005°19'3 5.5
2018-Jan-10 14:00N 35°56' W 005°18'918.6
2018-Jan-10 13:30N 36°05' W 005°23'4 7.9
2018-Jan-10 13:00N 36°08' W 005°26'0 0.0
2018-Jan-10 12:30N 36°08' W 005°26'0 0.0
2018-Jan-10 12:01N 36°08' W 005°26'2 4.4
2018-Jan-10 11:30N 36°07' W 005°24'918.1
2018-Jan-10 11:00N 35°59' W 005°21'510.0
2018-Jan-10 10:30N 35°54' W 005°19'0 0.0
2018-Jan-10 10:00N 35°54' W 005°19'0 0.0
2018-Jan-10 09:30N 35°54' W 005°19'0 0.0
2018-Jan-10 09:00N 35°54' W 005°19'0 0.0
2018-Jan-10 08:30N 35°54' W 005°19'1 1.8
2018-Jan-10 08:01N 35°54' W 005°18'1019.3
2018-Jan-10 07:31N 36°04' W 005°22'611.2
2018-Jan-10 07:00N 36°08' W 005°26'0 0.0
2018-Jan-10 06:30N 36°08' W 005°26'3 6.8
2018-Jan-10 06:00N 36°06' W 005°23'917.7
2018-Jan-10 05:30N 35°57' W 005°20'4 7.2
2018-Jan-10 05:00N 35°54' W 005°19'0 0.0
2018-Jan-10 04:30N 35°54' W 005°19'0 0.0
2018-Jan-10 04:00N 35°54' W 005°19'0 0.0
2018-Jan-10 03:30N 35°54' W 005°19'0 0.0
2018-Jan-10 03:00N 35°54' W 005°19'0 0.0
2018-Jan-10 02:30N 35°54' W 005°19'0 0.0
2018-Jan-10 02:00N 35°54' W 005°19'0 0.0
2018-Jan-10 01:30N 35°54' W 005°19'0 0.0
2018-Jan-10 01:00N 35°54' W 005°19'0 0.0
2018-Jan-10 00:30N 35°54' W 005°19'0 0.0
2018-Jan-10 00:00N 35°54' W 005°19'3 5.5
2018-Jan-09 23:31N 35°56' W 005°20'918.4
2018-Jan-09 23:00N 36°05' W 005°23'4 7.6
2018-Jan-09 22:30N 36°08' W 005°26'0 0.0
2018-Jan-09 22:01N 36°08' W 005°26'0 0.0
2018-Jan-09 21:30N 36°08' W 005°26'0 0.0
2018-Jan-09 21:01N 36°08' W 005°26'0 0.0
2018-Jan-09 20:30N 36°08' W 005°26'2 3.4
2018-Jan-09 20:00N 36°08' W 005°24'918.3
2018-Jan-09 19:30N 35°60' W 005°21'612.3
2018-Jan-09 19:00N 35°54' W 005°19'0 0.0
2018-Jan-09 18:30N 35°54' W 005°19'2 4.2
2018-Jan-09 18:00N 35°56' W 005°18'1019.1
2018-Jan-09 17:30N 36°05' W 005°22'5 9.2
2018-Jan-09 17:00N 36°08' W 005°26'0 0.0
2018-Jan-09 16:30N 36°08' W 005°26'2 4.1
2018-Jan-09 16:00N 36°08' W 005°24'918.5
2018-Jan-09 15:31N 35°59' W 005°20'510.7
2018-Jan-09 15:00N 35°54' W 005°19'0 0.0
2018-Jan-09 14:30N 35°54' W 005°19'1 2.4
2018-Jan-09 14:00N 35°55' W 005°18'918.8
2018-Jan-09 13:30N 36°04' W 005°22'611.0
2018-Jan-09 13:00N 36°08' W 005°26'0 0.1
2018-Jan-09 12:30N 36°08' W 005°26'0 0.0
2018-Jan-09 12:00N 36°08' W 005°26'2 3.0
2018-Jan-09 11:30N 36°09' W 005°25'918.1
2018-Jan-09 11:00N 36°00' W 005°21'713.5
2018-Jan-09 10:30N 35°54' W 005°19'0 0.0
2018-Jan-09 10:00N 35°54' W 005°19'0 0.0
2018-Jan-09 09:30N 35°54' W 005°19'0 0.0
2018-Jan-09 09:00N 35°54' W 005°19'0 0.0
2018-Jan-09 08:30N 35°54' W 005°19'1 1.6
2018-Jan-09 08:00N 35°54' W 005°18'1019.0
2018-Jan-09 07:30N 36°03' W 005°22'611.4
2018-Jan-09 07:00N 36°08' W 005°26'0 0.3
2018-Jan-09 06:30N 36°08' W 005°26'1 3.0
2018-Jan-09 06:01N 36°09' W 005°25'918.6
2018-Jan-09 05:30N 36°00' W 005°20'713.1
2018-Jan-09 05:00N 35°54' W 005°19'0 0.0
2018-Jan-09 04:30N 35°54' W 005°19'0 0.0
2018-Jan-09 04:00N 35°54' W 005°19'0 0.0
2018-Jan-09 03:30N 35°54' W 005°19'0 0.0
2018-Jan-09 03:00N 35°54' W 005°19'0 0.0
2018-Jan-09 02:30N 35°54' W 005°19'0 0.0
2018-Jan-09 02:00N 35°54' W 005°19'0 0.0
2018-Jan-09 01:30N 35°54' W 005°19'0 0.0
2018-Jan-09 01:00N 35°54' W 005°19'0 0.0
2018-Jan-09 00:30N 35°54' W 005°19'0 0.0
2018-Jan-09 00:00N 35°54' W 005°19'1 1.2
2018-Jan-08 23:30N 35°54' W 005°19'918.3
2018-Jan-08 23:01N 36°03' W 005°22'612.4
2018-Jan-08 22:29N 36°08' W 005°26'8 2.7
2018-Jan-08 19:38N 36°01' W 005°21'217.7
2018-Jan-08 19:30N 35°59' W 005°20'611.2
2018-Jan-08 19:00N 35°54' W 005°19'0 0.0
2018-Jan-08 18:30N 35°54' W 005°19'2 4.0
2018-Jan-08 18:00N 35°56' W 005°18'5 2.3
2018-Jan-08 15:39N 36°00' W 005°21'317.7
2018-Jan-08 15:30N 35°58' W 005°20'4 8.8
2018-Jan-08 15:00N 35°54' W 005°19'0 0.0
2018-Jan-08 14:31N 35°54' W 005°19'1 2.0
2018-Jan-08 14:00N 35°55' W 005°19'918.9
2018-Jan-08 13:30N 36°04' W 005°22'2 0.7
2018-Jan-08 11:08N 36°02' W 005°22'218.9
2018-Jan-08 11:00N 35°60' W 005°21'612.6
2018-Jan-08 10:30N 35°54' W 005°19'0 0.0
2018-Jan-08 10:00N 35°54' W 005°19'0 0.0
2018-Jan-08 09:30N 35°54' W 005°19'0 0.0
2018-Jan-08 09:00N 35°54' W 005°19'0 0.0
2018-Jan-08 08:30N 35°54' W 005°19'3 6.1
2018-Jan-08 08:00N 35°57' W 005°20'917.9
2018-Jan-08 07:30N 36°05' W 005°23'4 3.4
2018-Jan-08 06:27N 36°08' W 005°26'4 8.6
2018-Jan-08 06:00N 36°05' W 005°23'918.9
2018-Jan-08 05:31N 35°56' W 005°20'2 4.9
2018-Jan-08 05:01N 35°54' W 005°19'0 0.0
2018-Jan-08 04:31N 35°54' W 005°19'0 0.0
2018-Jan-08 04:01N 35°54' W 005°19'0 0.0
2018-Jan-08 03:31N 35°54' W 005°19'0 0.0
2018-Jan-08 03:01N 35°54' W 005°19'0 0.0
2018-Jan-08 02:30N 35°54' W 005°19'0 0.0
2018-Jan-08 02:01N 35°54' W 005°19'  

Dump ship's entire track history